Time;durP1;ratioP1;P1;durP2;ratioP2;P2;SDS_P1;SDS_P2;PMS_P1;PMS_P2;Temp;Humidity;BMP_temperature;BMP_pressure;BME280_temperature;BME280_humidity;BME280_pressure;Samples;Min_cycle;Max_cycle;Signal;HPM_P1;HPM_P2
2022/03/06 00:02:02;;;;;;;37.38;22.70;;;;;;;-0.14;71.60;102229.09;5033450;28;20477;-57
2022/03/06 00:04:27;;;;;;;39.28;21.98;;;;;;;-0.17;72.00;102216.75;5033239;28;20021;-57
2022/03/06 00:06:52;;;;;;;37.65;20.98;;;;;;;-0.17;71.61;102225.75;5032226;28;20419;-55
2022/03/06 00:09:18;;;;;;;38.05;21.98;;;;;;;-0.16;71.72;102232.88;5032783;28;20029;-56
2022/03/06 00:11:44;;;;;;;37.45;20.88;;;;;;;-0.16;71.65;102232.88;5033192;28;20490;-58
2022/03/06 00:14:09;;;;;;;37.30;21.67;;;;;;;-0.18;71.91;102237.66;5032883;28;20112;-57
2022/03/06 00:16:35;;;;;;;39.22;22.60;;;;;;;-0.18;71.50;102242.28;5032680;28;20108;-58
2022/03/06 00:19:00;;;;;;;35.47;19.80;;;;;;;-0.24;71.87;102235.75;5032821;28;20056;-57
2022/03/06 00:21:25;;;;;;;39.55;21.73;;;;;;;-0.24;71.58;102238.47;5032944;28;20026;-57
2022/03/06 00:23:51;;;;;;;38.28;22.15;;;;;;;-0.24;71.66;102246.63;5033027;28;20028;-58
2022/03/06 00:26:16;;;;;;;39.53;21.58;;;;;;;-0.25;71.77;102238.66;5032742;28;20051;-58
2022/03/06 00:28:41;;;;;;;39.38;21.92;;;;;;;-0.27;71.97;102246.19;5032971;28;20419;-58
2022/03/06 00:31:07;;;;;;;38.55;21.67;;;;;;;-0.32;71.68;102241.34;5032942;28;20025;-56
2022/03/06 00:33:32;;;;;;;38.97;23.65;;;;;;;-0.34;71.86;102241.56;5032685;28;20026;-55
2022/03/06 00:35:58;;;;;;;41.65;22.52;;;;;;;-0.34;72.15;102251.56;5032739;28;20175;-58
2022/03/06 00:38:23;;;;;;;39.05;20.80;;;;;;;-0.35;71.67;102250.75;5032782;28;20029;-57
2022/03/06 00:40:49;;;;;;;37.35;21.70;;;;;;;-0.40;71.70;102250.47;5032776;28;20017;-59
2022/03/06 00:43:15;;;;;;;38.08;22.05;;;;;;;-0.40;72.18;102255.09;5032676;28;20097;-58
2022/03/06 00:45:41;;;;;;;37.00;21.20;;;;;;;-0.47;72.37;102257.75;5032756;28;20040;-58
2022/03/06 00:48:06;;;;;;;36.55;22.73;;;;;;;-0.50;72.66;102263.56;5032480;28;20037;-56
2022/03/06 00:50:31;;;;;;;39.63;22.00;;;;;;;-0.55;72.54;102261.44;5032706;28;20029;-57
2022/03/06 00:52:57;;;;;;;35.10;20.40;;;;;;;-0.57;72.94;102271.69;5032553;28;20033;-58
2022/03/06 00:55:22;;;;;;;37.00;21.38;;;;;;;-0.60;73.31;102258.50;5032575;28;20025;-57
2022/03/06 00:57:47;;;;;;;38.15;21.67;;;;;;;-0.65;73.05;102269.94;5032955;28;20029;-56
2022/03/06 01:00:13;;;;;;;38.47;21.95;;;;;;;-0.69;73.35;102273.25;5032444;28;20083;-57
2022/03/06 01:02:39;;;;;;;38.15;20.83;;;;;;;-0.71;73.80;102270.72;5032477;28;20489;-57
2022/03/06 01:05:04;;;;;;;37.85;21.23;;;;;;;-0.72;73.47;102274.50;5032332;28;20091;-57
2022/03/06 01:07:30;;;;;;;38.38;21.98;;;;;;;-0.75;73.66;102283.03;5032455;28;20112;-57
2022/03/06 01:09:55;;;;;;;40.85;23.10;;;;;;;-0.79;73.71;102277.16;5032714;28;20025;-57
2022/03/06 01:12:21;;;;;;;40.13;22.73;;;;;;;-0.79;74.13;102277.16;5032377;28;20428;-57
2022/03/06 01:14:47;;;;;;;37.45;20.83;;;;;;;-0.80;74.20;102283.63;5032479;28;20078;-55
2022/03/06 01:17:12;;;;;;;38.42;22.70;;;;;;;-0.83;74.52;102283.16;5032562;28;20075;-57
2022/03/06 01:19:37;;;;;;;37.75;21.02;;;;;;;-0.86;74.33;102278.97;5032233;28;20108;-57
2022/03/06 01:22:03;;;;;;;39.78;23.20;;;;;;;-0.89;74.91;102275.78;5032942;28;20075;-56
2022/03/06 01:24:28;;;;;;;38.55;21.02;;;;;;;-0.89;74.84;102282.06;5032953;28;20108;-57
2022/03/06 01:26:54;;;;;;;37.40;21.17;;;;;;;-0.94;74.68;102279.06;5032408;28;20112;-57
2022/03/06 01:29:22;;;;;;;36.22;22.30;;;;;;;-0.94;75.36;102287.22;5014983;28;20145;-57
2022/03/06 01:31:47;;;;;;;36.78;21.13;;;;;;;-0.98;75.22;102292.19;5032410;28;20057;-57
2022/03/06 01:34:12;;;;;;;38.30;22.17;;;;;;;-1.04;75.64;102287.56;5032564;28;20366;-57
2022/03/06 01:36:38;;;;;;;36.97;20.08;;;;;;;-1.02;75.56;102290.94;5033223;28;20034;-56
2022/03/06 01:39:03;;;;;;;38.00;21.80;;;;;;;-1.07;75.75;102292.53;5033862;28;20474;-57
2022/03/06 01:41:33;;;;;;;41.78;23.55;;;;;;;-1.14;75.38;102273.44;5036147;28;20075;-56
2022/03/06 01:43:58;;;;;;;39.58;21.85;;;;;;;-1.08;75.94;102291.69;5036021;28;20029;-56
2022/03/06 01:46:23;;;;;;;40.08;22.90;;;;;;;-1.10;75.87;102286.44;5036052;28;20150;-56
2022/03/06 01:48:49;;;;;;;37.78;20.85;;;;;;;-1.12;76.20;102285.78;5035547;28;20175;-57
2022/03/06 01:51:14;;;;;;;37.63;22.10;;;;;;;-1.08;76.22;102299.00;5035505;28;20156;-57
2022/03/06 01:53:40;;;;;;;37.08;21.58;;;;;;;-1.08;76.36;102293.56;5035324;28;20485;-57
2022/03/06 01:56:06;;;;;;;37.53;21.60;;;;;;;-1.13;76.10;102283.28;5034781;28;20030;-57
2022/03/06 01:58:32;;;;;;;35.47;20.75;;;;;;;-1.09;75.89;102300.88;5035543;28;20025;-57
2022/03/06 02:00:57;;;;;;;38.83;21.48;;;;;;;-1.13;76.10;102289.53;5035624;28;20477;-57
2022/03/06 02:03:22;;;;;;;38.33;21.20;;;;;;;-1.14;76.20;102290.59;5035941;28;20083;-57
2022/03/06 02:05:48;;;;;;;35.88;20.33;;;;;;;-1.19;76.46;102293.03;5035959;28;20021;-58
2022/03/06 02:08:14;;;;;;;37.30;21.73;;;;;;;-1.21;76.47;102297.81;5018077;28;20024;-57
2022/03/06 02:10:39;;;;;;;36.38;20.63;;;;;;;-1.24;76.40;102290.06;5035927;28;20049;-57
2022/03/06 02:13:05;;;;;;;38.28;20.77;;;;;;;-1.28;76.66;102291.47;5035809;28;20029;-57
2022/03/06 02:15:31;;;;;;;33.88;19.58;;;;;;;-1.30;76.20;102288.94;5035937;28;20389;-55
2022/03/06 02:17:57;;;;;;;35.83;21.05;;;;;;;-1.33;76.56;102289.31;5035548;28;20053;-55
2022/03/06 02:20:24;;;;;;;34.58;20.38;;;;;;;-1.35;77.20;102291.38;5035655;28;20072;-56
2022/03/06 02:22:52;;;;;;;34.05;19.83;;;;;;;-1.36;77.40;102292.41;5035370;28;20032;-55
2022/03/06 02:25:21;;;;;;;37.67;21.60;;;;;;;-1.36;77.43;102297.00;5035393;28;20022;-57
2022/03/06 02:27:48;;;;;;;35.53;20.70;;;;;;;-1.34;76.83;102294.94;5035316;28;20068;-61
2022/03/06 02:30:17;;;;;;;37.72;19.77;;;;;;;-1.47;77.76;102290.22;5035261;28;20550;-57
2022/03/06 02:32:44;;;;;;;37.17;20.60;;;;;;;-1.38;76.99;102307.22;5035371;28;20475;-57
2022/03/06 02:35:10;;;;;;;34.97;20.63;;;;;;;-1.42;77.99;102310.28;5035239;28;20034;-57
2022/03/06 02:37:36;;;;;;;36.40;20.30;;;;;;;-1.46;78.17;102311.72;5035208;28;20040;-57
2022/03/06 02:40:04;;;;;;;36.00;19.70;;;;;;;-1.46;77.95;102322.56;5035280;28;20036;-57
2022/03/06 02:42:31;;;;;;;36.47;20.25;;;;;;;-1.58;78.77;102305.94;5034917;28;20037;-57
2022/03/06 02:44:58;;;;;;;34.83;19.85;;;;;;;-1.53;78.79;102313.50;5035050;28;20029;-57
2022/03/06 02:47:24;;;;;;;37.30;20.67;;;;;;;-1.55;79.04;102315.56;5034711;28;20389;-57
2022/03/06 02:49:50;;;;;;;36.20;21.42;;;;;;;-1.60;79.27;102313.44;5034529;28;20033;-56
2022/03/06 02:52:15;;;;;;;37.63;20.35;;;;;;;-1.65;79.22;102302.28;5034687;28;20025;-56
2022/03/06 02:54:41;;;;;;;34.70;21.15;;;;;;;-1.62;79.45;102310.06;5034624;28;20053;-57
2022/03/06 02:57:08;;;;;;;34.75;19.98;;;;;;;-1.62;79.45;102314.66;5034639;28;20020;-57
2022/03/06 02:59:33;;;;;;;35.17;21.38;;;;;;;-1.67;79.58;102314.34;5034647;28;20481;-56
2022/03/06 03:01:58;;;;;;;36.88;21.75;;;;;;;-1.70;80.35;102314.75;5034764;28;20041;-57
2022/03/06 03:04:24;;;;;;;36.38;21.55;;;;;;;-1.69;80.26;102319.13;5034712;28;20386;-56
2022/03/06 03:06:50;;;;;;;34.65;20.23;;;;;;;-1.70;79.69;102306.59;5034730;28;20041;-57
2022/03/06 03:09:19;;;;;;;35.00;20.15;;;;;;;-1.75;80.57;102321.56;5050044;22;20034;-60
2022/03/06 03:11:46;;;;;;;37.63;21.17;;;;;;;-1.78;79.93;102327.34;4994472;28;20058;-61
2022/03/06 03:14:12;;;;;;;38.67;22.60;;;;;;;-1.81;81.04;102332.31;4995524;28;20030;-59
2022/03/06 03:16:38;;;;;;;38.28;21.65;;;;;;;-1.85;80.81;102321.00;4995308;28;20029;-59
2022/03/06 03:19:03;;;;;;;36.13;20.35;;;;;;;-1.92;80.71;102315.47;4995301;28;20026;-60
2022/03/06 03:21:28;;;;;;;36.28;20.25;;;;;;;-1.86;80.57;102326.63;4995277;28;20029;-59
2022/03/06 03:23:54;;;;;;;35.38;19.77;;;;;;;-1.90;81.28;102331.59;4995443;28;20041;-59
2022/03/06 03:26:19;;;;;;;37.10;19.70;;;;;;;-1.93;81.02;102329.22;4995399;28;20030;-59
2022/03/06 03:28:45;;;;;;;36.58;21.13;;;;;;;-1.94;81.06;102313.97;4995224;28;20026;-60
2022/03/06 03:31:10;;;;;;;35.80;20.48;;;;;;;-1.97;81.47;102320.63;4995138;28;20343;-60
2022/03/06 03:33:35;;;;;;;37.05;21.20;;;;;;;-2.00;81.71;102323.69;4994930;28;20114;-60
2022/03/06 03:36:02;;;;;;;35.88;20.92;;;;;;;-2.02;81.37;102322.22;4994951;28;20359;-59
2022/03/06 03:38:27;;;;;;;36.35;21.25;;;;;;;-2.05;81.42;102329.69;4994706;28;20054;-59
2022/03/06 03:40:53;;;;;;;35.10;19.95;;;;;;;-2.05;80.98;102324.25;4994892;28;20050;-59
2022/03/06 03:43:18;;;;;;;36.20;20.67;;;;;;;-2.08;81.12;102330.03;4994918;28;20084;-60
2022/03/06 03:45:44;;;;;;;32.85;18.95;;;;;;;-2.11;81.99;102325.00;4994737;28;20492;-59
2022/03/06 03:48:09;;;;;;;35.83;20.92;;;;;;;-2.14;81.23;102329.97;4994410;28;20034;-61
2022/03/06 03:50:34;;;;;;;35.78;19.98;;;;;;;-2.13;82.48;102335.19;4994638;28;20074;-59
2022/03/06 03:53:00;;;;;;;35.50;22.25;;;;;;;-2.21;81.74;102327.97;4994611;28;20379;-60
2022/03/06 03:55:25;;;;;;;35.45;21.35;;;;;;;-2.22;81.92;102333.59;4994649;28;20026;-60
2022/03/06 03:57:50;;;;;;;36.75;21.38;;;;;;;-2.22;81.99;102336.28;4994465;28;20386;-58
2022/03/06 04:00:15;;;;;;;33.70;20.10;;;;;;;-2.23;82.33;102330.03;4994457;28;20038;-58
2022/03/06 04:02:41;;;;;;;36.78;21.02;;;;;;;-2.27;82.31;102338.72;4993864;28;20514;-58
2022/03/06 04:05:07;;;;;;;34.10;20.45;;;;;;;-2.27;82.15;102338.72;4994348;28;20053;-58
2022/03/06 04:07:32;;;;;;;34.65;21.08;;;;;;;-2.33;81.88;102337.59;4994574;28;20062;-57
2022/03/06 04:09:57;;;;;;;37.65;21.90;;;;;;;-2.37;82.59;102352.53;4994130;28;20493;-58
2022/03/06 04:12:23;;;;;;;34.22;21.33;;;;;;;-2.39;83.03;102352.72;4994481;28;20038;-58
2022/03/06 04:14:48;;;;;;;34.72;20.25;;;;;;;-2.38;83.15;102351.69;4976732;28;20022;-58
2022/03/06 04:17:13;;;;;;;33.22;19.63;;;;;;;-2.33;82.82;102358.41;4994121;28;20152;-58
2022/03/06 04:19:39;;;;;;;34.22;18.67;;;;;;;-2.36;82.10;102362.34;4994112;28;20034;-58
2022/03/06 04:22:04;;;;;;;35.78;20.48;;;;;;;-2.38;82.68;102359.81;4994106;28;20034;-59
2022/03/06 04:24:29;;;;;;;35.88;20.05;;;;;;;-2.41;82.63;102362.88;4994047;28;20037;-60
2022/03/06 04:26:55;;;;;;;36.53;20.60;;;;;;;-2.45;82.72;102358.84;4994322;28;20045;-59
2022/03/06 04:29:20;;;;;;;34.70;21.08;;;;;;;-2.49;83.18;102360.25;4993978;28;20034;-59
2022/03/06 04:31:46;;;;;;;34.58;19.88;;;;;;;-2.52;82.74;102363.31;4993943;28;20031;-59
2022/03/06 04:34:11;;;;;;;36.97;21.80;;;;;;;-2.55;83.52;102358.28;4994080;28;20030;-58
2022/03/06 04:36:37;;;;;;;34.30;20.13;;;;;;;-2.59;83.32;102363.19;4993879;28;20026;-59
2022/03/06 04:39:04;;;;;;;35.53;21.02;;;;;;;-2.68;83.38;102354.28;4993802;28;20030;-58
2022/03/06 04:41:29;;;;;;;32.28;19.23;;;;;;;-2.56;83.54;102370.13;4993685;28;20499;-57
2022/03/06 04:43:55;;;;;;;34.80;22.88;;;;;;;-2.58;83.68;102377.59;4993859;28;20030;-58
2022/03/06 04:46:20;;;;;;;32.85;20.08;;;;;;;-2.61;83.82;102375.22;4993868;28;20457;-58
2022/03/06 04:48:46;;;;;;;33.13;21.30;;;;;;;-2.63;83.57;102378.13;4993921;28;20034;-59
2022/03/06 04:51:11;;;;;;;34.92;21.33;;;;;;;-2.63;83.21;102391.69;4993806;28;20030;-57
2022/03/06 04:53:37;;;;;;;35.97;21.02;;;;;;;-2.66;83.96;102389.31;4993728;28;20041;-60
2022/03/06 04:56:03;;;;;;;33.05;19.95;;;;;;;-2.70;83.52;102388.00;4993840;28;20477;-59
2022/03/06 04:58:28;;;;;;;35.15;20.55;;;;;;;-2.70;83.41;102386.13;4994003;28;20033;-60
2022/03/06 05:00:54;;;;;;;35.75;21.08;;;;;;;-2.73;83.57;102397.31;4993584;28;20056;-58
2022/03/06 05:03:19;;;;;;;34.53;20.35;;;;;;;-2.74;84.20;102400.22;4993442;28;20038;-60
2022/03/06 05:05:44;;;;;;;33.03;20.58;;;;;;;-2.74;83.93;102408.34;4993772;28;20034;-60
2022/03/06 05:08:09;;;;;;;33.33;19.95;;;;;;;-2.74;83.95;102408.34;4993620;28;20394;-60
2022/03/06 05:10:35;;;;;;;35.05;19.58;;;;;;;-2.75;83.54;102412.94;4993397;28;20061;-59
2022/03/06 05:13:01;;;;;;;36.72;20.75;;;;;;;-2.76;83.39;102413.94;4993683;28;20049;-59
2022/03/06 05:15:27;;;;;;;34.40;20.98;;;;;;;-2.77;83.83;102414.97;4997491;28;20474;-58
2022/03/06 05:17:52;;;;;;;34.78;20.85;;;;;;;-2.79;84.24;102422.41;4997209;28;20181;-59
2022/03/06 05:20:18;;;;;;;34.63;20.67;;;;;;;-2.85;84.71;102417.72;4997671;28;20030;-60
2022/03/06 05:22:43;;;;;;;34.00;20.33;;;;;;;-2.87;84.46;102415.19;4997311;28;20038;-59
2022/03/06 05:25:09;;;;;;;36.97;20.50;;;;;;;-2.88;84.53;102420.78;4997256;28;20058;-59
2022/03/06 05:27:35;;;;;;;37.40;21.17;;;;;;;-2.91;84.16;102413.84;4997217;28;20481;-60
2022/03/06 05:30:00;;;;;;;34.17;20.05;;;;;;;-2.94;84.63;102411.50;4997347;28;20030;-59
2022/03/06 05:32:26;;;;;;;37.17;21.50;;;;;;;-2.94;84.87;102419.63;4997094;28;20565;-59
2022/03/06 05:34:51;;;;;;;36.10;21.90;;;;;;;-2.93;84.91;102415.06;4997278;28;20510;-59
2022/03/06 05:37:16;;;;;;;34.22;21.65;;;;;;;-2.95;84.72;102420.63;4996958;28;20026;-59
2022/03/06 05:39:42;;;;;;;34.33;20.25;;;;;;;-2.96;84.71;102421.66;4997234;28;20038;-62
2022/03/06 05:42:08;;;;;;;33.05;20.35;;;;;;;-2.97;84.99;102422.66;4996679;28;20037;-60
2022/03/06 05:44:33;;;;;;;33.58;20.73;;;;;;;-2.94;84.11;102426.91;4995466;28;20122;-59
2022/03/06 05:46:58;;;;;;;33.47;19.88;;;;;;;-2.99;84.66;102424.75;4996318;28;20081;-60
2022/03/06 05:49:24;;;;;;;34.38;20.90;;;;;;;-2.96;84.37;102427.06;4996860;28;20038;-60
2022/03/06 05:51:49;;;;;;;34.58;21.63;;;;;;;-2.92;84.35;102438.38;4997204;28;20035;-60
2022/03/06 05:54:14;;;;;;;34.80;20.85;;;;;;;-2.93;84.15;102439.44;4996603;28;20034;-60
2022/03/06 05:56:39;;;;;;;34.05;20.77;;;;;;;-2.95;84.29;102426.06;4996806;28;20081;-60
2022/03/06 05:59:05;;;;;;;32.33;21.25;;;;;;;-2.93;84.10;102439.44;4996614;28;20038;-59
2022/03/06 06:01:31;;;;;;;35.85;21.02;;;;;;;-2.92;84.04;102447.38;4996581;28;20033;-59
2022/03/06 06:03:57;;;;;;;32.20;20.02;;;;;;;-2.91;84.22;102435.53;4996712;28;20553;-58
2022/03/06 06:06:24;;;;;;;33.22;19.67;;;;;;;-2.83;83.09;102440.03;4996744;28;20034;-59
2022/03/06 06:08:49;;;;;;;34.00;20.85;;;;;;;-2.86;83.18;102440.41;4996508;28;20034;-59
2022/03/06 06:11:15;;;;;;;34.15;20.95;;;;;;;-2.86;83.97;102440.41;4996149;28;20108;-60
2022/03/06 06:13:40;;;;;;;35.03;19.92;;;;;;;-2.85;82.70;102450.22;4996207;28;20113;-60
2022/03/06 06:16:05;;;;;;;33.60;21.67;;;;;;;-2.83;83.68;102454.44;4996205;28;20026;-60
2022/03/06 06:18:31;;;;;;;34.55;22.48;;;;;;;-2.83;83.14;102450.88;4996178;28;20036;-60
2022/03/06 06:20:57;;;;;;;34.53;22.13;;;;;;;-2.83;83.31;102449.03;4996155;28;20066;-59
2022/03/06 06:23:22;;;;;;;34.03;22.30;;;;;;;-2.80;83.25;102457.81;4979057;28;20034;-59
2022/03/06 06:25:47;;;;;;;33.92;21.38;;;;;;;-2.79;83.23;102467.63;4995569;28;20452;-59
2022/03/06 06:28:13;;;;;;;33.58;22.52;;;;;;;-2.78;82.99;102470.16;4996195;28;20126;-59
2022/03/06 06:30:39;;;;;;;31.48;20.02;;;;;;;-2.76;83.06;102468.13;4995860;28;20085;-58
2022/03/06 06:33:04;;;;;;;33.35;20.40;;;;;;;-2.74;82.88;102471.47;4996181;28;20029;-59
2022/03/06 06:35:29;;;;;;;31.88;20.42;;;;;;;-2.71;82.96;102471.13;4995776;28;20425;-58
2022/03/06 06:37:55;;;;;;;33.75;20.23;;;;;;;-2.69;82.41;102465.53;4995780;28;20030;-59
2022/03/06 06:40:20;;;;;;;31.83;19.88;;;;;;;-2.68;82.35;102473.50;4995782;28;20133;-60
2022/03/06 06:42:45;;;;;;;34.67;20.75;;;;;;;-2.63;82.47;102480.22;4995888;28;20475;-59
2022/03/06 06:45:10;;;;;;;36.80;22.80;;;;;;;-2.62;82.46;102479.22;4996008;28;20521;-58
2022/03/06 06:47:36;;;;;;;33.20;21.33;;;;;;;-2.57;81.76;102488.50;4995885;28;20037;-59
2022/03/06 06:50:03;;;;;;;33.38;20.58;;;;;;;-2.49;81.39;102487.63;4995688;28;20049;-59
2022/03/06 06:52:28;;;;;;;33.38;19.70;;;;;;;-2.48;81.90;102492.03;4995738;28;20061;-58
2022/03/06 06:54:53;;;;;;;32.17;19.70;;;;;;;-2.47;82.08;102496.44;4978444;28;20121;-59
2022/03/06 06:57:19;;;;;;;32.65;20.08;;;;;;;-2.46;81.59;102495.41;4995738;28;20066;-59
2022/03/06 06:59:44;;;;;;;33.08;21.25;;;;;;;-2.45;81.27;102491.66;4995399;28;20121;-59
2022/03/06 07:02:09;;;;;;;34.03;20.95;;;;;;;-2.39;81.37;102500.94;4977876;28;20027;-59
2022/03/06 07:04:35;;;;;;;34.83;18.83;;;;;;;-2.35;81.69;102505.00;4994949;28;20052;-59
2022/03/06 07:07:00;;;;;;;29.55;18.25;;;;;;;-2.29;81.13;102506.97;4995070;28;20116;-59
2022/03/06 07:09:25;;;;;;;33.80;19.77;;;;;;;-2.30;81.30;102499.88;4994257;28;20053;-60
2022/03/06 07:11:50;;;;;;;31.95;19.98;;;;;;;-2.24;81.28;102511.88;4995512;28;20038;-58
2022/03/06 07:14:16;;;;;;;30.95;19.98;;;;;;;-2.23;81.18;102509.00;4995190;28;20077;-57
2022/03/06 07:16:43;;;;;;;32.50;19.70;;;;;;;-2.21;81.14;102509.63;4995483;28;20037;-58
2022/03/06 07:19:08;;;;;;;32.70;19.95;;;;;;;-2.13;80.62;102511.44;4995450;28;20037;-59
2022/03/06 07:21:33;;;;;;;32.70;19.27;;;;;;;-2.07;80.46;102513.44;4994229;28;20030;-58
2022/03/06 07:23:58;;;;;;;32.63;20.17;;;;;;;-2.06;80.49;102520.56;4994963;28;20031;-59
2022/03/06 07:26:24;;;;;;;32.50;22.48;;;;;;;-1.98;80.28;102527.78;4995616;28;20486;-59
2022/03/06 07:28:49;;;;;;;32.33;21.77;;;;;;;-1.96;80.24;102525.75;4995117;28;20030;-58
2022/03/06 07:31:14;;;;;;;32.33;20.60;;;;;;;-1.92;80.00;102531.66;4995630;28;20101;-59
2022/03/06 07:33:39;;;;;;;33.33;20.73;;;;;;;-1.88;80.03;102539.25;4995082;28;20057;-59
2022/03/06 07:36:05;;;;;;;33.08;20.10;;;;;;;-1.84;79.96;102547.03;4994335;28;20038;-60
2022/03/06 07:38:30;;;;;;;32.40;19.95;;;;;;;-1.79;80.31;102550.03;4994824;28;20045;-59
2022/03/06 07:40:55;;;;;;;32.28;19.77;;;;;;;-1.75;79.71;102546.78;4993551;28;20474;-59
2022/03/06 07:43:20;;;;;;;31.00;18.75;;;;;;;-1.73;80.14;102544.72;4994776;28;20030;-59
2022/03/06 07:45:46;;;;;;;31.90;19.13;;;;;;;-1.66;79.47;102546.72;4994770;28;20034;-58
2022/03/06 07:48:11;;;;;;;30.20;20.20;;;;;;;-1.65;79.03;102543.81;4994659;28;20403;-58
2022/03/06 07:50:36;;;;;;;31.33;19.60;;;;;;;-1.57;79.57;102554.63;4994772;28;20056;-58
2022/03/06 07:53:01;;;;;;;29.73;18.05;;;;;;;-1.46;78.65;102564.19;4994802;28;20037;-59
2022/03/06 07:55:27;;;;;;;33.22;19.90;;;;;;;-1.45;79.09;102560.44;4994218;28;20044;-59
2022/03/06 07:57:52;;;;;;;31.02;20.48;;;;;;;-1.38;79.00;102554.28;4994114;28;20030;-59
2022/03/06 08:00:17;;;;;;;30.77;18.88;;;;;;;-1.33;78.82;102569.00;4994450;28;20065;-59
2022/03/06 08:02:43;;;;;;;30.95;18.70;;;;;;;-1.28;78.43;102563.88;4993005;28;20031;-59
2022/03/06 08:05:08;;;;;;;32.05;19.77;;;;;;;-1.23;79.15;102574.19;4994329;28;20031;-56
2022/03/06 08:07:35;;;;;;;33.38;21.85;;;;;;;-1.16;78.38;102569.69;4983230;28;20483;-58
2022/03/06 08:10:01;;;;;;;30.88;18.23;;;;;;;-1.08;78.52;102578.78;4972376;28;20046;-56
2022/03/06 08:12:27;;;;;;;29.63;18.27;;;;;;;-1.03;77.66;102579.03;4955392;28;20479;-58
2022/03/06 08:14:54;;;;;;;31.85;19.35;;;;;;;-0.94;77.37;102575.22;4972541;28;20038;-59
2022/03/06 08:17:19;;;;;;;30.13;18.92;;;;;;;-0.86;77.16;102582.44;4990467;28;20034;-59
2022/03/06 08:19:45;;;;;;;31.33;18.67;;;;;;;-0.80;77.00;102584.41;4991805;28;20038;-59
2022/03/06 08:22:11;;;;;;;32.97;20.05;;;;;;;-0.72;76.62;102583.47;4991607;28;20122;-57
2022/03/06 08:24:37;;;;;;;30.45;18.65;;;;;;;-0.65;77.03;102584.41;4990278;28;20041;-58
2022/03/06 08:27:02;;;;;;;29.45;17.70;;;;;;;-0.55;76.84;102584.13;4990461;28;20042;-59
2022/03/06 08:29:27;;;;;;;30.27;19.15;;;;;;;-0.48;76.21;102587.78;4991215;28;20096;-60
2022/03/06 08:31:52;;;;;;;30.77;19.88;;;;;;;-0.38;76.27;102587.50;4991148;28;20455;-60
2022/03/06 08:34:18;;;;;;;28.77;16.52;;;;;;;-0.33;75.88;102591.31;4991358;28;20031;-59
2022/03/06 08:36:43;;;;;;;31.27;19.48;;;;;;;-0.26;75.76;102602.28;4981965;28;20041;-60
2022/03/06 08:39:09;;;;;;;30.98;18.50;;;;;;;-0.20;75.56;102593.38;4991200;28;20085;-59
2022/03/06 08:41:34;;;;;;;31.10;19.73;;;;;;;-0.09;75.32;102597.47;4991199;28;20034;-60
2022/03/06 08:43:59;;;;;;;30.58;19.48;;;;;;;-0.03;75.99;102595.88;4991210;28;20130;-60
2022/03/06 08:46:25;;;;;;;30.27;18.67;;;;;;;0.01;75.59;102599.88;4991477;28;20050;-60
2022/03/06 08:48:50;;;;;;;32.83;20.10;;;;;;;0.05;75.29;102598.47;4991230;28;20022;-59
2022/03/06 08:51:15;;;;;;;30.02;19.10;;;;;;;0.10;75.67;102604.16;4991326;28;20034;-60
2022/03/06 08:53:41;;;;;;;30.42;20.58;;;;;;;0.17;75.52;102601.53;4991200;28;20045;-60
2022/03/06 08:56:06;;;;;;;30.73;19.33;;;;;;;0.22;74.73;102595.50;4991412;28;20109;-60
2022/03/06 08:58:31;;;;;;;30.33;18.75;;;;;;;0.22;74.14;102600.94;4973719;28;20073;-59
2022/03/06 09:00:57;;;;;;;30.98;20.95;;;;;;;0.26;73.78;102600.34;4991195;28;20030;-59
2022/03/06 09:03:22;;;;;;;30.98;18.60;;;;;;;0.32;74.00;102603.34;4988431;28;20065;-59
2022/03/06 09:05:48;;;;;;;32.08;17.52;;;;;;;0.40;73.83;102605.94;4990358;28;20030;-58
2022/03/06 09:08:13;;;;;;;30.98;20.95;;;;;;;0.53;74.17;102607.94;4991526;28;20038;-60
2022/03/06 09:10:40;;;;;;;29.98;19.38;;;;;;;0.53;73.67;102603.34;4989813;28;20081;-60
2022/03/06 09:13:08;;;;;;;31.70;20.25;;;;;;;0.57;73.14;102607.38;4991340;28;20490;-61
2022/03/06 09:15:35;;;;;;;29.95;19.13;;;;;;;0.64;73.26;102621.06;4991566;28;20026;-59
2022/03/06 09:18:00;;;;;;;30.20;19.23;;;;;;;0.73;73.03;102606.25;4991296;28;20038;-60
2022/03/06 09:20:26;;;;;;;29.00;19.52;;;;;;;0.77;72.58;102599.34;4989884;28;20030;-60
2022/03/06 09:22:52;;;;;;;30.58;19.35;;;;;;;0.84;72.64;102598.59;4983152;28;20038;-60
2022/03/06 09:25:17;;;;;;;32.42;20.38;;;;;;;0.89;72.75;102601.56;4975908;28;20039;-60
2022/03/06 09:27:43;;;;;;;30.08;18.80;;;;;;;0.98;72.54;102607.72;4978696;28;20089;-60
2022/03/06 09:30:09;;;;;;;31.50;19.90;;;;;;;1.01;71.64;102602.69;4971792;28;20046;-60
2022/03/06 09:32:35;;;;;;;29.58;18.77;;;;;;;1.11;71.21;102601.50;4971697;28;20082;-60
2022/03/06 09:35:01;;;;;;;30.27;20.55;;;;;;;1.14;70.82;102601.94;4971748;28;20090;-60
2022/03/06 09:37:26;;;;;;;31.33;19.58;;;;;;;1.22;71.39;102600.97;4976204;28;20043;-60
2022/03/06 09:39:51;;;;;;;29.75;18.63;;;;;;;1.30;71.42;102599.94;4977913;28;20073;-59
2022/03/06 09:42:18;;;;;;;29.98;18.10;;;;;;;1.42;70.56;102605.69;4971741;28;20034;-60
2022/03/06 09:44:46;;;;;;;27.67;17.83;;;;;;;1.44;70.49;102601.72;4954349;28;20486;-60
2022/03/06 09:47:12;;;;;;;28.80;18.42;;;;;;;1.55;70.51;102597.56;4971698;28;20023;-61
2022/03/06 09:49:37;;;;;;;28.08;17.70;;;;;;;1.67;69.93;102601.41;4954484;28;20035;-59
2022/03/06 09:52:03;;;;;;;29.65;18.20;;;;;;;1.79;69.43;102606.28;4971646;28;20101;-59
2022/03/06 09:54:29;;;;;;;29.15;18.50;;;;;;;1.85;69.71;102602.72;4976382;28;20031;-60
2022/03/06 09:56:55;;;;;;;30.25;18.88;;;;;;;1.92;69.31;102603.59;4978499;28;20407;-61
2022/03/06 09:59:20;;;;;;;27.88;17.90;;;;;;;1.97;68.25;102598.38;4972160;28;20031;-61
2022/03/06 10:01:45;;;;;;;27.80;17.92;;;;;;;2.01;67.01;102601.53;4975323;28;20503;-60
2022/03/06 10:04:25;;;;;;;26.48;16.65;;;;;;;2.03;67.00;102597.53;4974729;28;20102;-60
2022/03/06 10:07:11;;;;;;;26.60;17.77;;;;;;;2.11;67.84;102587.47;4984862;28;20053;-59
2022/03/06 10:09:50;;;;;;;26.85;17.90;;;;;;;2.29;68.06;102600.56;4986751;28;20059;-59
2022/03/06 10:12:28;;;;;;;25.20;16.92;;;;;;;2.31;67.40;102596.56;4993813;28;20038;-60
2022/03/06 10:14:56;;;;;;;25.10;16.08;;;;;;;2.33;67.67;102594.47;4994471;28;20056;-60
2022/03/06 10:17:23;;;;;;;26.52;17.05;;;;;;;2.43;67.46;102595.94;4994179;28;20027;-60
2022/03/06 10:19:52;;;;;;;25.67;16.77;;;;;;;2.48;66.22;102593.41;4977116;28;20035;-58
2022/03/06 10:22:19;;;;;;;26.23;16.77;;;;;;;2.55;65.82;102599.72;4989781;28;20521;-60
2022/03/06 10:24:56;;;;;;;26.45;16.73;;;;;;;2.63;66.47;102598.69;4976017;28;20117;-59
2022/03/06 10:27:43;;;;;;;25.95;17.08;;;;;;;2.64;66.58;102598.50;4997931;28;20030;-61
2022/03/06 10:30:26;;;;;;;27.10;16.58;;;;;;;2.76;65.99;102606.06;4999781;28;20018;-59
2022/03/06 10:32:52;;;;;;;25.02;16.88;;;;;;;2.78;64.98;102610.28;4985790;28;20157;-61
2022/03/06 10:35:17;;;;;;;26.17;16.35;;;;;;;2.85;64.10;102601.22;4986634;28;20035;-60
2022/03/06 10:37:43;;;;;;;25.67;15.75;;;;;;;2.86;63.86;102598.28;4964361;28;20042;-60
2022/03/06 10:40:14;;;;;;;26.15;16.35;;;;;;;2.96;63.48;102608.78;4982266;28;20622;-59
2022/03/06 10:42:40;;;;;;;26.92;16.00;;;;;;;3.00;63.81;102601.84;4982842;28;20505;-59
2022/03/06 10:45:06;;;;;;;25.90;15.57;;;;;;;3.10;62.94;102607.72;4981744;28;20035;-60
2022/03/06 10:47:46;;;;;;;24.35;15.75;;;;;;;3.21;64.30;102600.75;4981351;28;20164;-60
2022/03/06 10:50:12;;;;;;;25.83;15.60;;;;;;;3.28;62.20;102600.75;4983879;28;20026;-60
2022/03/06 10:52:41;;;;;;;26.08;15.77;;;;;;;3.29;61.47;102594.22;4984751;28;20049;-59
2022/03/06 10:55:07;;;;;;;26.00;17.13;;;;;;;3.16;60.47;102591.53;4979221;28;20034;-60
2022/03/06 10:57:32;;;;;;;23.98;15.18;;;;;;;3.22;61.16;102602.44;4973520;28;20026;-61
2022/03/06 10:59:59;;;;;;;24.60;15.40;;;;;;;3.36;61.78;102597.78;4973869;28;20094;-61
2022/03/06 11:02:25;;;;;;;26.05;16.20;;;;;;;3.41;60.28;102592.50;4973382;28;20027;-61
2022/03/06 11:04:56;;;;;;;24.40;16.20;;;;;;;3.45;61.22;102600.31;4989109;28;20041;-60
2022/03/06 11:07:23;;;;;;;26.38;15.75;;;;;;;3.55;58.56;102589.72;4990242;28;20121;-60